sensor_id;sensor_type;location;lat;lon;timestamp;pressure;altitude;pressure_sealevel;temperature;humidity
73558;BME280;61829;53.286;10.434;2023-08-01T00:01:38;99543.19;;;16.75;100.00
73558;BME280;61829;53.286;10.434;2023-08-01T00:04:04;99534.22;;;16.75;100.00
73558;BME280;61829;53.286;10.434;2023-08-01T00:07:04;99532.59;;;16.74;100.00
73558;BME280;61829;53.286;10.434;2023-08-01T00:09:30;99529.28;;;16.72;100.00
73558;BME280;61829;53.286;10.434;2023-08-01T00:11:58;99524.38;;;16.69;100.00
73558;BME280;61829;53.286;10.434;2023-08-01T00:14:24;99524.59;;;16.67;100.00
73558;BME280;61829;53.286;10.434;2023-08-01T00:16:51;99514.56;;;16.68;100.00
73558;BME280;61829;53.286;10.434;2023-08-01T00:19:17;99506.41;;;16.68;100.00
73558;BME280;61829;53.286;10.434;2023-08-01T00:21:45;99501.50;;;16.65;100.00
73558;BME280;61829;53.286;10.434;2023-08-01T00:24:10;99490.84;;;16.63;100.00
73558;BME280;61829;53.286;10.434;2023-08-01T00:26:37;99485.66;;;16.61;100.00
73558;BME280;61829;53.286;10.434;2023-08-01T00:29:02;99489.47;;;16.60;100.00
73558;BME280;61829;53.286;10.434;2023-08-01T00:34:33;99478.00;;;16.58;100.00
73558;BME280;61829;53.286;10.434;2023-08-01T00:36:59;99471.50;;;16.59;100.00
73558;BME280;61829;53.286;10.434;2023-08-01T00:39:25;99459.53;;;16.60;100.00
73558;BME280;61829;53.286;10.434;2023-08-01T00:41:51;99456.25;;;16.58;100.00
73558;BME280;61829;53.286;10.434;2023-08-01T00:44:17;99453.28;;;16.60;100.00
73558;BME280;61829;53.286;10.434;2023-08-01T00:46:44;99450.56;;;16.60;100.00
73558;BME280;61829;53.286;10.434;2023-08-01T00:49:10;99446.75;;;16.61;100.00
73558;BME280;61829;53.286;10.434;2023-08-01T00:51:36;99438.59;;;16.61;100.00
73558;BME280;61829;53.286;10.434;2023-08-01T00:54:02;99431.53;;;16.60;100.00
73558;BME280;61829;53.286;10.434;2023-08-01T00:56:29;99438.88;;;16.59;100.00
73558;BME280;61829;53.286;10.434;2023-08-01T00:58:55;99442.66;;;16.58;100.00
73558;BME280;61829;53.286;10.434;2023-08-01T01:01:21;99427.44;;;16.57;100.00
73558;BME280;61829;53.286;10.434;2023-08-01T01:03:48;99426.84;;;16.55;100.00
73558;BME280;61829;53.286;10.434;2023-08-01T01:06:28;99433.38;;;16.54;100.00
73558;BME280;61829;53.286;10.434;2023-08-01T01:08:56;99419.78;;;16.54;100.00
73558;BME280;61829;53.286;10.434;2023-08-01T01:11:22;99410.00;;;16.53;100.00
73558;BME280;61829;53.286;10.434;2023-08-01T01:13:48;99410.81;;;16.54;100.00
73558;BME280;61829;53.286;10.434;2023-08-01T01:16:15;99412.72;;;16.53;100.00
73558;BME280;61829;53.286;10.434;2023-08-01T01:18:41;99398.28;;;16.53;100.00
73558;BME280;61829;53.286;10.434;2023-08-01T01:21:07;99413.25;;;16.50;100.00
73558;BME280;61829;53.286;10.434;2023-08-01T01:23:33;99409.69;;;16.50;100.00
73558;BME280;61829;53.286;10.434;2023-08-01T01:26:00;99394.44;;;16.49;100.00
73558;BME280;61829;53.286;10.434;2023-08-01T01:28:27;99397.16;;;16.49;100.00
73558;BME280;61829;53.286;10.434;2023-08-01T01:30:55;99392.81;;;16.48;100.00
73558;BME280;61829;53.286;10.434;2023-08-01T01:33:21;99396.88;;;16.45;100.00
73558;BME280;61829;53.286;10.434;2023-08-01T01:35:47;99393.34;;;16.45;100.00
73558;BME280;61829;53.286;10.434;2023-08-01T01:38:13;99389.78;;;16.44;100.00
73558;BME280;61829;53.286;10.434;2023-08-01T01:40:40;99387.91;;;16.45;100.00
73558;BME280;61829;53.286;10.434;2023-08-01T01:43:05;99386.81;;;16.46;100.00
73558;BME280;61829;53.286;10.434;2023-08-01T01:45:32;99388.44;;;16.47;100.00
73558;BME280;61829;53.286;10.434;2023-08-01T01:47:57;99381.94;;;16.48;100.00
73558;BME280;61829;53.286;10.434;2023-08-01T01:50:24;99374.84;;;16.47;100.00
73558;BME280;61829;53.286;10.434;2023-08-01T01:52:50;99381.09;;;16.47;100.00
73558;BME280;61829;53.286;10.434;2023-08-01T01:55:16;99372.41;;;16.45;100.00
73558;BME280;61829;53.286;10.434;2023-08-01T01:57:42;99365.88;;;16.46;100.00
73558;BME280;61829;53.286;10.434;2023-08-01T02:00:08;99355.00;;;16.46;100.00
73558;BME280;61829;53.286;10.434;2023-08-01T02:02:37;99353.38;;;16.45;100.00
73558;BME280;61829;53.286;10.434;2023-08-01T02:05:03;99351.47;;;16.46;100.00
73558;BME280;61829;53.286;10.434;2023-08-01T02:07:30;99342.50;;;16.45;100.00
73558;BME280;61829;53.286;10.434;2023-08-01T02:09:56;99346.28;;;16.44;100.00
73558;BME280;61829;53.286;10.434;2023-08-01T02:12:22;99345.47;;;16.44;100.00
73558;BME280;61829;53.286;10.434;2023-08-01T02:14:48;99357.44;;;16.43;100.00
73558;BME280;61829;53.286;10.434;2023-08-01T02:17:14;99332.97;;;16.43;100.00
73558;BME280;61829;53.286;10.434;2023-08-01T02:19:40;99347.88;;;16.40;100.00
73558;BME280;61829;53.286;10.434;2023-08-01T02:22:06;99351.69;;;16.39;100.00
73558;BME280;61829;53.286;10.434;2023-08-01T02:24:32;99348.13;;;16.38;100.00
73558;BME280;61829;53.286;10.434;2023-08-01T02:26:58;99337.53;;;16.37;100.00
73558;BME280;61829;53.286;10.434;2023-08-01T02:29:24;99349.47;;;16.36;100.00
73558;BME280;61829;53.286;10.434;2023-08-01T02:31:50;99347.84;;;16.35;100.00
73558;BME280;61829;53.286;10.434;2023-08-01T02:34:17;99344.31;;;16.34;100.00
73558;BME280;61829;53.286;10.434;2023-08-01T02:36:42;99336.16;;;16.34;100.00
73558;BME280;61829;53.286;10.434;2023-08-01T02:39:09;99334.25;;;16.35;100.00
73558;BME280;61829;53.286;10.434;2023-08-01T02:41:35;99332.63;;;16.34;100.00
73558;BME280;61829;53.286;10.434;2023-08-01T02:44:01;99324.47;;;16.34;100.00
73558;BME280;61829;53.286;10.434;2023-08-01T02:46:27;99324.47;;;16.34;100.00
73558;BME280;61829;53.286;10.434;2023-08-01T02:48:55;99325.53;;;16.33;100.00
73558;BME280;61829;53.286;10.434;2023-08-01T02:51:21;99329.34;;;16.32;100.00
73558;BME280;61829;53.286;10.434;2023-08-01T02:53:47;99327.19;;;16.34;100.00
73558;BME280;61829;53.286;10.434;2023-08-01T02:56:13;99328.25;;;16.33;100.00
73558;BME280;61829;53.286;10.434;2023-08-01T02:58:39;99319.28;;;16.32;100.00
73558;BME280;61829;53.286;10.434;2023-08-01T03:01:08;99322.81;;;16.33;100.00
73558;BME280;61829;53.286;10.434;2023-08-01T03:03:39;99318.47;;;16.32;100.00
73558;BME280;61829;53.286;10.434;2023-08-01T03:06:17;99310.31;;;16.32;100.00
73558;BME280;61829;53.286;10.434;2023-08-01T03:08:44;99308.41;;;16.32;100.00
73558;BME280;61829;53.286;10.434;2023-08-01T03:11:10;99312.22;;;16.31;100.00
73558;BME280;61829;53.286;10.434;2023-08-01T03:13:36;99308.69;;;16.31;100.00
73558;BME280;61829;53.286;10.434;2023-08-01T03:16:03;99305.38;;;16.29;100.00
73558;BME280;61829;53.286;10.434;2023-08-01T03:18:30;99298.31;;;16.28;100.00
73558;BME280;61829;53.286;10.434;2023-08-01T03:20:56;99292.88;;;16.28;100.00
73558;BME280;61829;53.286;10.434;2023-08-01T03:23:22;99294.50;;;16.29;100.00
73558;BME280;61829;53.286;10.434;2023-08-01T03:25:48;99282.00;;;16.28;100.00
73558;BME280;61829;53.286;10.434;2023-08-01T03:28:15;99289.06;;;16.29;100.00
73558;BME280;61829;53.286;10.434;2023-08-01T03:30:41;99284.72;;;16.28;100.00
73558;BME280;61829;53.286;10.434;2023-08-01T03:33:07;99279.53;;;16.26;100.00
73558;BME280;61829;53.286;10.434;2023-08-01T03:35:33;99282.50;;;16.25;100.00
73558;BME280;61829;53.286;10.434;2023-08-01T03:37:59;99281.69;;;16.24;100.00
73558;BME280;61829;53.286;10.434;2023-08-01T03:40:25;99278.16;;;16.24;100.00
73558;BME280;61829;53.286;10.434;2023-08-01T03:42:51;99274.09;;;16.26;100.00
73558;BME280;61829;53.286;10.434;2023-08-01T03:45:17;99271.38;;;16.26;100.00
73558;BME280;61829;53.286;10.434;2023-08-01T03:47:43;99275.44;;;16.24;100.00
73558;BME280;61829;53.286;10.434;2023-08-01T03:50:09;99263.19;;;16.21;100.00
73558;BME280;61829;53.286;10.434;2023-08-01T03:52:35;99264.28;;;16.20;100.00
73558;BME280;61829;53.286;10.434;2023-08-01T03:55:01;99264.00;;;16.16;100.00
73558;BME280;61829;53.286;10.434;2023-08-01T03:57:28;99255.84;;;16.16;100.00
73558;BME280;61829;53.286;10.434;2023-08-01T03:59:54;99268.84;;;16.14;100.00
73558;BME280;61829;53.286;10.434;2023-08-01T04:02:20;99264.22;;;16.15;100.00
73558;BME280;61829;53.286;10.434;2023-08-01T04:04:45;99263.94;;;16.11;100.00
73558;BME280;61829;53.286;10.434;2023-08-01T04:07:12;99268.28;;;16.12;100.00
73558;BME280;61829;53.286;10.434;2023-08-01T04:09:38;99258.50;;;16.11;100.00
73558;BME280;61829;53.286;10.434;2023-08-01T04:12:05;99256.31;;;16.13;100.00
73558;BME280;61829;53.286;10.434;2023-08-01T04:14:33;99271.00;;;16.12;100.00
73558;BME280;61829;53.286;10.434;2023-08-01T04:16:59;99265.56;;;16.12;100.00
73558;BME280;61829;53.286;10.434;2023-08-01T04:19:25;99269.09;;;16.13;100.00
73558;BME280;61829;53.286;10.434;2023-08-01T04:21:51;99275.63;;;16.12;100.00
73558;BME280;61829;53.286;10.434;2023-08-01T04:24:17;99279.72;;;16.14;100.00
73558;BME280;61829;53.286;10.434;2023-08-01T04:26:43;99276.44;;;16.12;100.00
73558;BME280;61829;53.286;10.434;2023-08-01T04:29:09;99280.53;;;16.15;100.00
73558;BME280;61829;53.286;10.434;2023-08-01T04:31:38;99279.72;;;16.14;100.00
73558;BME280;61829;53.286;10.434;2023-08-01T04:34:04;99278.06;;;16.13;100.00
73558;BME280;61829;53.286;10.434;2023-08-01T04:36:31;99279.72;;;16.14;100.00
73558;BME280;61829;53.286;10.434;2023-08-01T04:38:56;99272.63;;;16.13;100.00
73558;BME280;61829;53.286;10.434;2023-08-01T04:41:22;99271.56;;;16.14;100.00
73558;BME280;61829;53.286;10.434;2023-08-01T04:43:49;99275.91;;;16.15;100.00
73558;BME280;61829;53.286;10.434;2023-08-01T04:46:15;99276.50;;;16.17;100.00
73558;BME280;61829;53.286;10.434;2023-08-01T04:48:41;99262.91;;;16.17;100.00
73558;BME280;61829;53.286;10.434;2023-08-01T04:51:07;99261.81;;;16.19;100.00
73558;BME280;61829;53.286;10.434;2023-08-01T04:53:33;99263.47;;;16.20;100.00
73558;BME280;61829;53.286;10.434;2023-08-01T04:55:59;99260.75;;;16.20;100.00
73558;BME280;61829;53.286;10.434;2023-08-01T04:58:25;99255.84;;;16.22;100.00
73558;BME280;61829;53.286;10.434;2023-08-01T05:00:51;99248.25;;;16.24;100.00
73558;BME280;61829;53.286;10.434;2023-08-01T05:03:17;99253.75;;;16.29;100.00
73558;BME280;61829;53.286;10.434;2023-08-01T05:05:44;99247.78;;;16.32;100.00
73558;BME280;61829;53.286;10.434;2023-08-01T05:08:09;99247.25;;;16.35;100.00
73558;BME280;61829;53.286;10.434;2023-08-01T05:10:36;99245.91;;;16.37;100.00
73558;BME280;61829;53.286;10.434;2023-08-01T05:13:01;99250.25;;;16.38;100.00
73558;BME280;61829;53.286;10.434;2023-08-01T05:15:28;99247.53;;;16.38;100.00
73558;BME280;61829;53.286;10.434;2023-08-01T05:17:54;99251.91;;;16.39;100.00
73558;BME280;61829;53.286;10.434;2023-08-01T05:20:21;99240.75;;;16.41;100.00
73558;BME280;61829;53.286;10.434;2023-08-01T05:22:49;99240.50;;;16.43;100.00
73558;BME280;61829;53.286;10.434;2023-08-01T05:25:15;99245.66;;;16.44;100.00
73558;BME280;61829;53.286;10.434;2023-08-01T05:27:41;99249.78;;;16.47;100.00
73558;BME280;61829;53.286;10.434;2023-08-01T05:30:07;99253.63;;;16.51;100.00
73558;BME280;61829;53.286;10.434;2023-08-01T05:32:33;99252.56;;;16.57;100.00
73558;BME280;61829;53.286;10.434;2023-08-01T05:35:00;99256.13;;;16.63;100.00
73558;BME280;61829;53.286;10.434;2023-08-01T05:37:26;99250.97;;;16.66;100.00
73558;BME280;61829;53.286;10.434;2023-08-01T05:39:52;99256.69;;;16.70;100.00
73558;BME280;61829;53.286;10.434;2023-08-01T05:42:18;99251.81;;;16.72;100.00
73558;BME280;61829;53.286;10.434;2023-08-01T05:44:44;99257.81;;;16.74;100.00
73558;BME280;61829;53.286;10.434;2023-08-01T05:47:10;99261.66;;;16.78;100.00
73558;BME280;61829;53.286;10.434;2023-08-01T05:49:36;99263.06;;;16.80;100.00
73558;BME280;61829;53.286;10.434;2023-08-01T05:52:02;99267.97;;;16.83;100.00
73558;BME280;61829;53.286;10.434;2023-08-01T05:54:28;99265.00;;;16.85;100.00
73558;BME280;61829;53.286;10.434;2023-08-01T06:00:03;99268.00;;;16.89;100.00
73558;BME280;61829;53.286;10.434;2023-08-01T06:02:30;99269.34;;;16.86;100.00
73558;BME280;61829;53.286;10.434;2023-08-01T06:04:56;99266.63;;;16.86;100.00
73558;BME280;61829;53.286;10.434;2023-08-01T06:07:22;99267.16;;;16.83;100.00
73558;BME280;61829;53.286;10.434;2023-08-01T06:09:50;99270.97;;;16.82;100.00
73558;BME280;61829;53.286;10.434;2023-08-01T06:12:18;99262.22;;;16.80;100.00
73558;BME280;61829;53.286;10.434;2023-08-01T06:14:46;99267.69;;;16.80;100.00
73558;BME280;61829;53.286;10.434;2023-08-01T06:17:12;99260.06;;;16.82;100.00
73558;BME280;61829;53.286;10.434;2023-08-01T06:19:38;99249.72;;;16.84;100.00
73558;BME280;61829;53.286;10.434;2023-08-01T06:22:04;99254.34;;;16.83;100.00
73558;BME280;61829;53.286;10.434;2023-08-01T06:24:30;99258.72;;;16.85;100.00
73558;BME280;61829;53.286;10.434;2023-08-01T06:26:56;99260.34;;;16.86;100.00
73558;BME280;61829;53.286;10.434;2023-08-01T06:29:23;99261.72;;;16.88;100.00
73558;BME280;61829;53.286;10.434;2023-08-01T06:31:51;99256.03;;;16.95;100.00
73558;BME280;61829;53.286;10.434;2023-08-01T06:34:17;99264.22;;;17.00;100.00
73558;BME280;61829;53.286;10.434;2023-08-01T06:36:43;99264.50;;;17.03;100.00
73558;BME280;61829;53.286;10.434;2023-08-01T06:39:10;99258.31;;;17.13;100.00
73558;BME280;61829;53.286;10.434;2023-08-01T06:41:36;99261.06;;;17.18;100.00
73558;BME280;61829;53.286;10.434;2023-08-01T06:44:02;99267.06;;;17.25;100.00
73558;BME280;61829;53.286;10.434;2023-08-01T06:46:28;99255.66;;;17.34;100.00
73558;BME280;61829;53.286;10.434;2023-08-01T06:48:54;99266.00;;;17.37;100.00
73558;BME280;61829;53.286;10.434;2023-08-01T06:51:20;99267.94;;;17.41;100.00
73558;BME280;61829;53.286;10.434;2023-08-01T06:53:47;99269.56;;;17.47;100.00
73558;BME280;61829;53.286;10.434;2023-08-01T06:56:13;99271.47;;;17.52;100.00
73558;BME280;61829;53.286;10.434;2023-08-01T06:58:39;99264.69;;;17.60;100.00
73558;BME280;61829;53.286;10.434;2023-08-01T07:01:05;99268.50;;;17.69;100.00
73558;BME280;61829;53.286;10.434;2023-08-01T07:04:02;99266.06;;;17.78;100.00
73558;BME280;61829;53.286;10.434;2023-08-01T07:06:28;99266.41;;;17.86;100.00
73558;BME280;61829;53.286;10.434;2023-08-01T07:08:55;99265.03;;;17.89;97.75
73558;BME280;61829;53.286;10.434;2023-08-01T07:11:23;99264.22;;;17.93;97.70
73558;BME280;61829;53.286;10.434;2023-08-01T07:13:49;99271.31;;;18.00;96.58
73558;BME280;61829;53.286;10.434;2023-08-01T07:16:15;99272.97;;;18.01;96.66
73558;BME280;61829;53.286;10.434;2023-08-01T07:18:41;99273.47;;;18.03;96.25
73558;BME280;61829;53.286;10.434;2023-08-01T07:21:07;99275.13;;;17.99;96.38
73558;BME280;61829;53.286;10.434;2023-08-01T07:23:34;99275.41;;;17.92;96.58
73558;BME280;61829;53.286;10.434;2023-08-01T07:26:01;99283.56;;;17.82;96.36
73558;BME280;61829;53.286;10.434;2023-08-01T07:28:28;99290.31;;;17.74;96.56
73558;BME280;61829;53.286;10.434;2023-08-01T07:31:02;99291.41;;;17.68;97.10
73558;BME280;61829;53.286;10.434;2023-08-01T07:33:28;99283.78;;;17.65;96.75
73558;BME280;61829;53.286;10.434;2023-08-01T07:35:54;99292.75;;;17.60;95.75
73558;BME280;61829;53.286;10.434;2023-08-01T07:38:21;99288.13;;;17.61;96.92
73558;BME280;61829;53.286;10.434;2023-08-01T07:40:46;99288.66;;;17.63;96.41
73558;BME280;61829;53.286;10.434;2023-08-01T07:43:13;99294.09;;;17.63;95.53
73558;BME280;61829;53.286;10.434;2023-08-01T07:45:39;99290.31;;;17.59;93.91
73558;BME280;61829;53.286;10.434;2023-08-01T07:48:05;99291.66;;;17.61;94.52
73558;BME280;61829;53.286;10.434;2023-08-01T07:50:31;99291.69;;;17.66;94.70
73558;BME280;61829;53.286;10.434;2023-08-01T07:52:58;99295.78;;;17.74;93.24
73558;BME280;61829;53.286;10.434;2023-08-01T07:55:24;99296.91;;;17.83;92.31
73558;BME280;61829;53.286;10.434;2023-08-01T07:57:50;99300.19;;;17.90;92.91
73558;BME280;61829;53.286;10.434;2023-08-01T08:00:16;99294.47;;;17.97;92.62
73558;BME280;61829;53.286;10.434;2023-08-01T08:02:44;99298.56;;;18.00;91.33
73558;BME280;61829;53.286;10.434;2023-08-01T08:05:10;99295.84;;;18.00;89.52
73558;BME280;61829;53.286;10.434;2023-08-01T08:07:37;99295.31;;;17.98;90.18
73558;BME280;61829;53.286;10.434;2023-08-01T08:10:05;99299.38;;;18.00;90.23
73558;BME280;61829;53.286;10.434;2023-08-01T08:12:32;99299.38;;;18.00;89.51
73558;BME280;61829;53.286;10.434;2023-08-01T08:14:58;99301.28;;;18.05;89.15
73558;BME280;61829;53.286;10.434;2023-08-01T08:17:24;99302.13;;;18.10;89.70
73558;BME280;61829;53.286;10.434;2023-08-01T08:19:50;99304.31;;;18.18;89.59
73558;BME280;61829;53.286;10.434;2023-08-01T08:22:16;99305.38;;;18.33;89.26
73558;BME280;61829;53.286;10.434;2023-08-01T08:24:43;99309.72;;;18.59;89.44
73558;BME280;61829;53.286;10.434;2023-08-01T08:27:09;99305.81;;;19.06;86.28
73558;BME280;61829;53.286;10.434;2023-08-01T08:29:35;99304.00;;;19.46;85.06
73558;BME280;61829;53.286;10.434;2023-08-01T08:32:02;99307.16;;;19.79;82.77
73558;BME280;61829;53.286;10.434;2023-08-01T08:34:47;99304.66;;;20.22;82.34
73558;BME280;61829;53.286;10.434;2023-08-01T08:37:14;99301.16;;;20.46;80.17
73558;BME280;61829;53.286;10.434;2023-08-01T08:39:40;99296.59;;;20.94;80.67
73558;BME280;61829;53.286;10.434;2023-08-01T08:42:06;99305.44;;;21.10;76.83
73558;BME280;61829;53.286;10.434;2023-08-01T08:44:35;99301.72;;;21.49;76.05
73558;BME280;61829;53.286;10.434;2023-08-01T08:47:08;99306.69;;;21.66;75.79
73558;BME280;61829;53.286;10.434;2023-08-01T08:49:36;99310.47;;;21.70;74.58
73558;BME280;61829;53.286;10.434;2023-08-01T08:52:04;99307.59;;;21.80;74.17
73558;BME280;61829;53.286;10.434;2023-08-01T08:54:30;99302.81;;;21.67;71.36
73558;BME280;61829;53.286;10.434;2023-08-01T08:56:56;99310.16;;;21.52;72.92
73558;BME280;61829;53.286;10.434;2023-08-01T08:59:25;99309.53;;;21.37;73.32
73558;BME280;61829;53.286;10.434;2023-08-01T09:01:51;99303.97;;;21.42;73.98
73558;BME280;61829;53.286;10.434;2023-08-01T09:04:17;99305.53;;;21.48;72.12
73558;BME280;61829;53.286;10.434;2023-08-01T09:06:51;99303.72;;;21.81;71.34
73558;BME280;61829;53.286;10.434;2023-08-01T09:09:21;99303.06;;;21.89;71.57
73558;BME280;61829;53.286;10.434;2023-08-01T09:11:50;99299.25;;;22.04;70.91
73558;BME280;61829;53.286;10.434;2023-08-01T09:14:17;99294.69;;;22.00;69.87
73558;BME280;61829;53.286;10.434;2023-08-01T09:16:45;99294.81;;;21.89;69.45
73558;BME280;61829;53.286;10.434;2023-08-01T09:19:17;99285.41;;;21.77;70.56
73558;BME280;61829;53.286;10.434;2023-08-01T09:21:45;99285.66;;;22.13;70.82
73558;BME280;61829;53.286;10.434;2023-08-01T09:24:14;99286.13;;;22.67;70.37
73558;BME280;61829;53.286;10.434;2023-08-01T09:26:41;99283.97;;;23.10;68.14
73558;BME280;61829;53.286;10.434;2023-08-01T09:29:08;99271.81;;;23.39;63.45
73558;BME280;61829;53.286;10.434;2023-08-01T09:31:37;99275.69;;;23.38;63.06
73558;BME280;61829;53.286;10.434;2023-08-01T09:34:04;99273.94;;;23.42;63.10
73558;BME280;61829;53.286;10.434;2023-08-01T09:36:34;99274.25;;;23.40;64.52
73558;BME280;61829;53.286;10.434;2023-08-01T09:39:01;99263.28;;;23.26;64.70
73558;BME280;61829;53.286;10.434;2023-08-01T09:41:31;99275.22;;;23.08;66.90
73558;BME280;61829;53.286;10.434;2023-08-01T09:43:57;99279.94;;;22.75;69.90
73558;BME280;61829;53.286;10.434;2023-08-01T09:46:24;99283.72;;;22.32;69.81
73558;BME280;61829;53.286;10.434;2023-08-01T09:48:50;99280.25;;;22.08;71.90
73558;BME280;61829;53.286;10.434;2023-08-01T09:51:18;99277.81;;;22.25;74.45
73558;BME280;61829;53.286;10.434;2023-08-01T09:53:56;99277.03;;;22.38;74.10
73558;BME280;61829;53.286;10.434;2023-08-01T09:56:24;99275.84;;;22.58;71.40
73558;BME280;61829;53.286;10.434;2023-08-01T09:58:52;99277.00;;;22.85;72.43
73558;BME280;61829;53.286;10.434;2023-08-01T10:01:20;99273.28;;;23.08;70.70
73558;BME280;61829;53.286;10.434;2023-08-01T10:03:51;99271.94;;;23.34;71.24
73558;BME280;61829;53.286;10.434;2023-08-01T10:06:26;99278.91;;;23.53;68.43
73558;BME280;61829;53.286;10.434;2023-08-01T10:08:54;99265.19;;;23.40;65.09
73558;BME280;61829;53.286;10.434;2023-08-01T10:11:21;99274.22;;;23.54;66.99
73558;BME280;61829;53.286;10.434;2023-08-01T10:13:48;99269.78;;;23.81;65.56
73558;BME280;61829;53.286;10.434;2023-08-01T10:16:15;99278.69;;;24.00;62.18
73558;BME280;61829;53.286;10.434;2023-08-01T10:18:43;99277.63;;;23.87;63.47
73558;BME280;61829;53.286;10.434;2023-08-01T10:21:14;99271.75;;;24.03;63.13
73558;BME280;61829;53.286;10.434;2023-08-01T10:23:41;99277.94;;;24.31;61.90
73558;BME280;61829;53.286;10.434;2023-08-01T10:26:09;99275.34;;;24.57;61.71
73558;BME280;61829;53.286;10.434;2023-08-01T10:28:41;99281.22;;;24.95;62.32
73558;BME280;61829;53.286;10.434;2023-08-01T10:31:17;99278.59;;;24.90;55.77
73558;BME280;61829;53.286;10.434;2023-08-01T10:33:47;99282.25;;;24.77;55.94
73558;BME280;61829;53.286;10.434;2023-08-01T10:36:24;99284.94;;;24.99;56.04
73558;BME280;61829;53.286;10.434;2023-08-01T10:38:54;99278.75;;;24.94;57.32
73558;BME280;61829;53.286;10.434;2023-08-01T10:41:30;99282.66;;;24.93;57.77
73558;BME280;61829;53.286;10.434;2023-08-01T10:44:10;99279.66;;;25.12;57.38
73558;BME280;61829;53.286;10.434;2023-08-01T10:46:55;99284.50;;;25.06;57.92
73558;BME280;61829;53.286;10.434;2023-08-01T10:49:37;99285.59;;;24.96;55.88
73558;BME280;61829;53.286;10.434;2023-08-01T10:52:26;99288.44;;;24.82;55.35
73558;BME280;61829;53.286;10.434;2023-08-01T10:58:52;99281.53;;;24.62;55.02
73558;BME280;61829;53.286;10.434;2023-08-01T11:01:19;99280.84;;;24.57;54.70
73558;BME280;61829;53.286;10.434;2023-08-01T11:03:45;99283.19;;;24.41;55.40
73558;BME280;61829;53.286;10.434;2023-08-01T11:06:11;99280.09;;;24.42;56.43
73558;BME280;61829;53.286;10.434;2023-08-01T11:08:38;99283.78;;;24.29;56.27
73558;BME280;61829;53.286;10.434;2023-08-01T11:11:11;99293.59;;;24.22;57.07
73558;BME280;61829;53.286;10.434;2023-08-01T11:13:37;99280.41;;;24.10;55.52
73558;BME280;61829;53.286;10.434;2023-08-01T11:16:04;99280.06;;;24.11;55.07
73558;BME280;61829;53.286;10.434;2023-08-01T11:18:42;99279.81;;;24.22;54.41
73558;BME280;61829;53.286;10.434;2023-08-01T11:21:10;99272.53;;;24.26;52.08
73558;BME280;61829;53.286;10.434;2023-08-01T11:23:36;99274.25;;;24.13;53.63
73558;BME280;61829;53.286;10.434;2023-08-01T11:26:08;99274.00;;;24.23;53.29
73558;BME280;61829;53.286;10.434;2023-08-01T11:28:37;99265.44;;;24.47;52.24
73558;BME280;61829;53.286;10.434;2023-08-01T11:31:11;99271.75;;;24.48;51.54
73558;BME280;61829;53.286;10.434;2023-08-01T11:33:38;99273.94;;;24.68;52.84
73558;BME280;61829;53.286;10.434;2023-08-01T11:36:05;99277.22;;;24.70;51.49
73558;BME280;61829;53.286;10.434;2023-08-01T11:38:33;99279.88;;;24.53;51.49
73558;BME280;61829;53.286;10.434;2023-08-01T11:41:04;99280.63;;;24.76;51.62
73558;BME280;61829;53.286;10.434;2023-08-01T11:43:41;99275.69;;;24.95;51.06
73558;BME280;61829;53.286;10.434;2023-08-01T11:46:09;99285.25;;;24.89;50.38
73558;BME280;61829;53.286;10.434;2023-08-01T11:48:36;99279.72;;;24.89;51.02
73558;BME280;61829;53.286;10.434;2023-08-01T11:51:04;99287.63;;;24.82;52.25
73558;BME280;61829;53.286;10.434;2023-08-01T11:53:31;99287.75;;;24.77;53.22
73558;BME280;61829;53.286;10.434;2023-08-01T11:56:06;99305.41;;;24.67;52.12
73558;BME280;61829;53.286;10.434;2023-08-01T11:58:34;99352.94;;;24.50;52.57
73558;BME280;61829;53.286;10.434;2023-08-01T18:37:08;99595.31;;;16.89;100.00
73558;BME280;61829;53.286;10.434;2023-08-01T18:39:35;99598.56;;;16.86;98.87
73558;BME280;61829;53.286;10.434;2023-08-01T18:42:01;99595.03;;;16.86;98.54
73558;BME280;61829;53.286;10.434;2023-08-01T18:44:27;99595.25;;;16.79;97.38
73558;BME280;61829;53.286;10.434;2023-08-01T18:46:54;99601.16;;;16.76;98.94
73558;BME280;61829;53.286;10.434;2023-08-01T18:49:22;99598.69;;;16.74;99.01
73558;BME280;61829;53.286;10.434;2023-08-01T18:51:48;99592.94;;;16.71;99.39
73558;BME280;61829;53.286;10.434;2023-08-01T18:54:14;99599.72;;;16.68;99.69
73558;BME280;61829;53.286;10.434;2023-08-01T18:56:41;99595.03;;;16.64;99.93
73558;BME280;61829;53.286;10.434;2023-08-01T18:59:07;99596.34;;;16.61;100.00
73558;BME280;61829;53.286;10.434;2023-08-01T19:01:35;99606.94;;;16.57;100.00
73558;BME280;61829;53.286;10.434;2023-08-01T19:04:01;99610.97;;;16.55;99.86
73558;BME280;61829;53.286;10.434;2023-08-01T19:06:27;99620.47;;;16.52;100.00
73558;BME280;61829;53.286;10.434;2023-08-01T19:08:54;99619.91;;;16.50;100.00
73558;BME280;61829;53.286;10.434;2023-08-01T19:11:21;99613.91;;;16.48;100.00
73558;BME280;61829;53.286;10.434;2023-08-01T19:13:47;99618.75;;;16.46;100.00
73558;BME280;61829;53.286;10.434;2023-08-01T19:16:16;99619.03;;;16.45;100.00
73558;BME280;61829;53.286;10.434;2023-08-01T19:18:49;99622.22;;;16.42;100.00
73558;BME280;61829;53.286;10.434;2023-08-01T19:21:16;99625.22;;;16.40;100.00
73558;BME280;61829;53.286;10.434;2023-08-01T19:23:42;99631.16;;;16.37;100.00
73558;BME280;61829;53.286;10.434;2023-08-01T19:26:10;99639.31;;;16.37;100.00
73558;BME280;61829;53.286;10.434;2023-08-01T19:28:37;99641.47;;;16.35;100.00
73558;BME280;61829;53.286;10.434;2023-08-01T19:31:04;99647.63;;;16.30;100.00